createdAt,value
2023-05-17T00:01:04.056Z,11.52
2023-05-17T00:03:33.403Z,11.39
2023-05-17T00:06:01.832Z,11.10
2023-05-17T00:08:32.145Z,10.99
2023-05-17T00:11:01.198Z,10.98
2023-05-17T00:13:29.679Z,11.04
2023-05-17T00:15:58.210Z,11.10
2023-05-17T00:18:28.088Z,11.10
2023-05-17T00:21:03.914Z,11.17
2023-05-17T00:23:34.014Z,11.17
2023-05-17T00:26:02.741Z,11.25
2023-05-17T00:28:31.352Z,11.33
2023-05-17T00:30:59.838Z,11.35
2023-05-17T00:33:28.892Z,11.35
2023-05-17T00:35:58.443Z,11.38
2023-05-17T00:38:28.916Z,11.41
2023-05-17T00:41:06.505Z,11.39
2023-05-17T00:43:35.039Z,11.39
2023-05-17T00:46:06.355Z,11.34
2023-05-17T00:48:35.163Z,11.27
2023-05-17T00:51:05.414Z,11.22
2023-05-17T00:53:37.456Z,11.20
2023-05-17T00:56:08.811Z,11.18
2023-05-17T00:58:40.888Z,11.14
2023-05-17T01:01:10.893Z,10.74
2023-05-17T01:03:40.062Z,10.67
2023-05-17T01:06:08.835Z,10.64
2023-05-17T01:08:39.369Z,10.50
2023-05-17T01:11:20.373Z,10.44
2023-05-17T01:14:01.543Z,10.36
2023-05-17T01:16:36.070Z,10.31
2023-05-17T01:19:16.835Z,10.26
2023-05-17T01:22:01.341Z,10.22
2023-05-17T01:24:35.828Z,10.24
2023-05-17T01:27:08.024Z,10.29
2023-05-17T01:29:39.378Z,10.30
2023-05-17T01:32:11.860Z,10.31
2023-05-17T01:34:43.524Z,10.27
2023-05-17T01:37:13.468Z,10.12
2023-05-17T01:39:43.479Z,10.09
2023-05-17T01:42:22.349Z,10.10
2023-05-17T01:44:58.756Z,10.13
2023-05-17T01:47:41.455Z,10.11
2023-05-17T01:50:13.651Z,10.09
2023-05-17T01:52:51.403Z,10.04
2023-05-17T01:55:28.640Z,9.69
2023-05-17T01:58:01.149Z,9.40
2023-05-17T02:00:31.748Z,9.38
2023-05-17T02:03:00.323Z,9.51
2023-05-17T02:05:29.455Z,9.59
2023-05-17T02:07:59.478Z,9.61
2023-05-17T02:10:28.137Z,9.63
2023-05-17T02:12:59.236Z,9.68
2023-05-17T02:15:30.452Z,9.73
2023-05-17T02:18:01.983Z,9.72
2023-05-17T02:20:30.801Z,9.76
2023-05-17T02:22:59.527Z,9.79
2023-05-17T02:25:30.241Z,9.72
2023-05-17T02:28:01.962Z,9.71
2023-05-17T02:30:30.454Z,9.61
2023-05-17T02:32:59.470Z,9.49
2023-05-17T02:35:31.605Z,9.49
2023-05-17T02:38:00.245Z,9.57
2023-05-17T02:40:29.677Z,9.62
2023-05-17T02:42:58.195Z,9.65
2023-05-17T02:45:29.357Z,9.70
2023-05-17T02:47:59.064Z,9.73
2023-05-17T02:50:28.641Z,9.65
2023-05-17T02:52:57.540Z,9.52
2023-05-17T02:55:26.000Z,9.43
2023-05-17T02:57:55.157Z,9.42
2023-05-17T03:00:25.352Z,9.47
2023-05-17T03:02:56.911Z,9.50
2023-05-17T03:05:25.617Z,9.53
2023-05-17T03:07:54.342Z,9.49
2023-05-17T03:10:23.213Z,9.46
2023-05-17T03:12:51.755Z,9.40
2023-05-17T03:15:21.577Z,9.32
2023-05-17T03:17:52.014Z,9.35
2023-05-17T03:20:22.126Z,9.43
2023-05-17T03:22:50.826Z,9.42
2023-05-17T03:25:19.491Z,9.27
2023-05-17T03:27:48.211Z,9.26
2023-05-17T03:30:17.009Z,9.19
2023-05-17T03:32:45.762Z,9.15
2023-05-17T03:35:14.300Z,9.05
2023-05-17T03:37:44.530Z,9.12
2023-05-17T03:40:13.409Z,9.21
2023-05-17T03:42:42.442Z,9.22
2023-05-17T03:45:11.780Z,9.06
2023-05-17T03:47:41.138Z,8.96
2023-05-17T03:50:15.828Z,8.90
2023-05-17T03:52:46.793Z,8.90
2023-05-17T03:55:15.739Z,8.93
2023-05-17T03:57:45.294Z,8.93
2023-05-17T04:00:22.285Z,8.86
2023-05-17T04:02:52.959Z,8.79
2023-05-17T04:05:22.013Z,8.66
2023-05-17T04:07:52.254Z,8.61
2023-05-17T04:10:20.890Z,8.65
2023-05-17T04:12:50.241Z,8.72
2023-05-17T04:15:21.704Z,8.72
2023-05-17T04:17:51.044Z,8.72
2023-05-17T04:20:22.450Z,8.72
2023-05-17T04:22:52.240Z,8.77
2023-05-17T04:25:21.205Z,8.75
2023-05-17T04:27:52.408Z,8.77
2023-05-17T04:30:21.733Z,8.80
2023-05-17T04:32:56.285Z,8.79
2023-05-17T04:35:25.216Z,8.82
2023-05-17T04:37:55.615Z,8.90
2023-05-17T04:40:26.073Z,8.85
2023-05-17T04:42:57.010Z,8.86
2023-05-17T04:45:38.053Z,8.89
2023-05-17T04:48:07.367Z,8.85
2023-05-17T04:50:37.830Z,8.86
2023-05-17T04:53:07.861Z,8.84
2023-05-17T04:55:39.215Z,8.83
2023-05-17T04:58:07.665Z,8.85
2023-05-17T05:00:43.668Z,8.91
2023-05-17T05:03:12.505Z,8.85
2023-05-17T05:05:41.457Z,8.84
2023-05-17T05:08:12.468Z,8.88
2023-05-17T05:10:41.103Z,8.94
2023-05-17T05:13:09.787Z,8.94
2023-05-17T05:15:38.654Z,8.99
2023-05-17T05:18:07.619Z,8.99
2023-05-17T05:20:37.513Z,9.06
2023-05-17T05:23:07.294Z,9.06
2023-05-17T05:25:39.473Z,9.09
2023-05-17T05:28:10.681Z,9.09
2023-05-17T05:30:45.516Z,9.15
2023-05-17T05:33:13.993Z,9.15
2023-05-17T05:35:42.630Z,9.19
2023-05-17T05:38:12.170Z,9.19
2023-05-17T05:40:55.511Z,9.18
2023-05-17T05:43:24.612Z,9.22
2023-05-17T05:45:53.091Z,9.20
2023-05-17T05:48:21.839Z,9.14
2023-05-17T05:50:52.029Z,9.19
2023-05-17T05:53:23.158Z,9.26
2023-05-17T05:55:51.740Z,9.37
2023-05-17T05:58:30.577Z,9.35
2023-05-17T06:01:09.206Z,9.38
2023-05-17T06:03:38.772Z,9.37
2023-05-17T06:06:08.056Z,9.33
2023-05-17T06:08:37.754Z,9.36
2023-05-17T06:11:06.589Z,9.34
2023-05-17T06:13:36.452Z,9.37
2023-05-17T06:16:06.098Z,9.38
2023-05-17T06:18:34.904Z,9.52
2023-05-17T06:21:03.469Z,9.68
2023-05-17T06:23:32.095Z,9.72
2023-05-17T06:26:01.265Z,9.93
2023-05-17T06:28:29.708Z,10.07
2023-05-17T06:30:59.641Z,10.13
2023-05-17T06:33:28.042Z,10.23
2023-05-17T06:35:58.190Z,10.29
2023-05-17T06:38:27.618Z,10.32
2023-05-17T06:40:58.702Z,10.33
2023-05-17T06:43:27.606Z,10.24
2023-05-17T06:45:56.105Z,10.28
2023-05-17T06:48:27.689Z,10.23
2023-05-17T06:50:56.409Z,10.36
2023-05-17T06:53:24.989Z,10.38
2023-05-17T06:55:53.489Z,10.34
2023-05-17T06:58:22.198Z,10.43
2023-05-17T07:00:50.996Z,10.54
2023-05-17T07:03:19.908Z,10.67
2023-05-17T07:05:49.964Z,10.73
2023-05-17T07:08:18.413Z,10.79
2023-05-17T07:10:47.510Z,10.92
2023-05-17T07:13:16.061Z,11.05
2023-05-17T07:15:45.009Z,11.18
2023-05-17T07:18:13.847Z,11.28
2023-05-17T07:20:42.486Z,11.40
2023-05-17T07:23:12.831Z,11.61
2023-05-17T07:25:43.476Z,11.60
2023-05-17T07:28:12.258Z,11.71
2023-05-17T07:30:40.874Z,11.81
2023-05-17T07:33:09.562Z,11.89
2023-05-17T07:35:37.965Z,11.97
2023-05-17T07:38:06.369Z,12.07
2023-05-17T07:40:36.578Z,12.25
2023-05-17T07:43:05.293Z,12.33
2023-05-17T07:45:34.073Z,12.54
2023-05-17T07:48:02.769Z,12.63
2023-05-17T07:50:31.476Z,12.69
2023-05-17T07:53:00.056Z,12.79
2023-05-17T07:55:28.794Z,12.96
2023-05-17T07:57:58.832Z,13.09
2023-05-17T08:00:30.789Z,13.24
2023-05-17T08:02:59.509Z,13.30
2023-05-17T08:05:28.907Z,13.34
2023-05-17T08:08:00.374Z,13.33
2023-05-17T08:10:29.212Z,13.29
2023-05-17T08:12:59.328Z,13.39
2023-05-17T08:15:28.008Z,13.51
2023-05-17T08:17:56.947Z,13.40
2023-05-17T08:20:25.654Z,13.37
2023-05-17T08:22:54.161Z,13.38
2023-05-17T08:25:22.752Z,13.36
2023-05-17T08:27:51.711Z,13.39
2023-05-17T08:32:57.231Z,13.46
2023-05-17T08:35:38.715Z,13.56
2023-05-17T08:38:07.307Z,13.55
2023-05-17T08:40:35.846Z,13.67
2023-05-17T08:43:05.088Z,13.77
2023-05-17T08:45:37.368Z,13.89
2023-05-17T08:48:07.437Z,14.03
2023-05-17T08:50:37.776Z,14.11
2023-05-17T08:53:06.518Z,14.09
2023-05-17T08:55:35.110Z,14.06
2023-05-17T08:58:05.172Z,14.19
2023-05-17T09:00:35.816Z,14.15
2023-05-17T09:03:04.990Z,14.22
2023-05-17T09:05:33.668Z,14.20
2023-05-17T09:08:02.375Z,14.30
2023-05-17T09:10:31.850Z,14.31
2023-05-17T09:13:00.461Z,14.40
2023-05-17T09:15:31.259Z,14.42
2023-05-17T09:18:02.277Z,14.52
2023-05-17T09:20:34.649Z,14.51
2023-05-17T09:23:04.950Z,14.57
2023-05-17T09:25:33.617Z,14.52
2023-05-17T09:28:08.053Z,14.54
2023-05-17T09:30:40.043Z,14.52
2023-05-17T09:33:13.962Z,14.63
2023-05-17T09:35:45.097Z,14.63
2023-05-17T09:38:15.391Z,14.82
2023-05-17T09:40:45.241Z,14.82
2023-05-17T09:43:14.920Z,14.97
2023-05-17T09:45:43.330Z,15.19
2023-05-17T09:48:18.603Z,15.30
2023-05-17T09:50:48.115Z,15.40
2023-05-17T09:53:31.159Z,15.36
2023-05-17T09:56:01.506Z,15.36
2023-05-17T09:58:33.210Z,15.43
2023-05-17T10:01:04.250Z,15.54
2023-05-17T10:03:35.991Z,15.67
2023-05-17T10:06:13.276Z,15.86
2023-05-17T10:08:48.115Z,16.16
2023-05-17T10:11:16.723Z,16.13
2023-05-17T10:13:49.829Z,16.11
2023-05-17T10:16:22.480Z,16.10
2023-05-17T10:18:53.189Z,16.24
2023-05-17T10:21:22.317Z,16.32
2023-05-17T10:23:51.729Z,16.52
2023-05-17T10:26:22.272Z,16.51
2023-05-17T10:28:53.638Z,16.48
2023-05-17T10:31:25.546Z,16.70
2023-05-17T10:33:56.508Z,16.79
2023-05-17T10:36:26.784Z,17.05
2023-05-17T10:38:56.076Z,16.98
2023-05-17T10:41:28.247Z,17.12
2023-05-17T10:43:57.796Z,17.30
2023-05-17T10:46:26.451Z,17.33
2023-05-17T10:49:00.783Z,17.12
2023-05-17T10:51:34.204Z,17.38
2023-05-17T10:55:00.256Z,17.39
2023-05-17T10:57:50.015Z,17.64
2023-05-17T11:00:22.732Z,17.78
2023-05-17T11:02:51.450Z,17.77
2023-05-17T11:05:29.076Z,17.87
2023-05-17T11:08:19.493Z,17.85
2023-05-17T11:11:10.334Z,18.17
2023-05-17T11:13:58.679Z,18.62
2023-05-17T11:16:30.150Z,18.24
2023-05-17T11:19:09.307Z,17.87
2023-05-17T11:21:47.741Z,17.58
2023-05-17T11:24:25.119Z,17.74
2023-05-17T11:26:56.791Z,18.19
2023-05-17T11:29:31.344Z,18.39
2023-05-17T11:31:59.856Z,18.36
2023-05-17T11:34:29.356Z,18.08
2023-05-17T11:36:59.740Z,18.14
2023-05-17T11:39:28.475Z,18.56
2023-05-17T11:41:58.009Z,18.34
2023-05-17T11:44:30.688Z,17.87
2023-05-17T11:47:05.012Z,17.81
2023-05-17T11:49:36.644Z,18.53
2023-05-17T11:52:07.636Z,18.10
2023-05-17T11:54:37.060Z,18.09
2023-05-17T11:57:06.334Z,18.49
2023-05-17T11:59:40.441Z,18.72
2023-05-17T12:02:09.328Z,18.44
2023-05-17T12:04:40.175Z,18.13
2023-05-17T12:07:12.251Z,18.47
2023-05-17T12:09:41.582Z,19.02
2023-05-17T12:12:11.393Z,19.09
2023-05-17T12:14:40.038Z,18.86
2023-05-17T12:17:10.624Z,19.45
2023-05-17T12:19:42.280Z,20.25
2023-05-17T12:22:14.579Z,20.18
2023-05-17T12:24:44.332Z,20.01
2023-05-17T12:27:13.011Z,19.66
2023-05-17T12:29:41.833Z,19.15
2023-05-17T12:32:12.134Z,19.27
2023-05-17T12:34:42.062Z,19.38
2023-05-17T12:37:11.273Z,19.11
2023-05-17T12:39:42.386Z,19.03
2023-05-17T12:42:11.945Z,18.90
2023-05-17T12:44:41.178Z,18.92
2023-05-17T12:47:11.783Z,19.11
2023-05-17T12:49:41.390Z,18.98
2023-05-17T12:52:11.646Z,18.77
2023-05-17T12:54:41.735Z,18.73
2023-05-17T12:57:16.294Z,18.76
2023-05-17T12:59:49.598Z,18.98
2023-05-17T13:02:18.837Z,19.25
2023-05-17T13:04:48.209Z,19.50
2023-05-17T13:07:23.590Z,19.50
2023-05-17T13:09:54.673Z,19.41
2023-05-17T13:12:25.084Z,19.39
2023-05-17T13:14:55.132Z,19.32
2023-05-17T13:17:27.242Z,19.09
2023-05-17T13:19:58.236Z,18.68
2023-05-17T13:22:27.632Z,18.46
2023-05-17T13:24:57.925Z,18.63
2023-05-17T13:27:26.563Z,18.78
2023-05-17T13:29:55.249Z,19.34
2023-05-17T13:32:23.636Z,19.75
2023-05-17T13:34:52.547Z,19.52
2023-05-17T13:37:21.441Z,19.14
2023-05-17T13:39:49.794Z,19.26
2023-05-17T13:42:20.454Z,19.83
2023-05-17T13:44:51.800Z,20.42
2023-05-17T13:47:20.445Z,20.12
2023-05-17T13:49:49.069Z,20.54
2023-05-17T13:52:18.850Z,20.65
2023-05-17T13:54:48.004Z,21.02
2023-05-17T13:57:16.794Z,21.64
2023-05-17T13:59:46.611Z,22.38
2023-05-17T14:02:15.405Z,23.04
2023-05-17T14:04:43.744Z,23.13
2023-05-17T14:07:12.376Z,23.05
2023-05-17T14:09:41.514Z,23.09
2023-05-17T14:12:10.095Z,22.99
2023-05-17T14:14:38.385Z,23.06
2023-05-17T14:17:08.531Z,23.21
2023-05-17T14:19:37.178Z,23.05
2023-05-17T14:22:05.944Z,22.11
2023-05-17T14:24:36.298Z,21.87
2023-05-17T14:27:05.635Z,21.92
2023-05-17T14:29:34.252Z,21.16
2023-05-17T14:32:02.797Z,21.79
2023-05-17T14:34:32.722Z,23.18
2023-05-17T14:37:01.434Z,23.11
2023-05-17T14:39:30.311Z,23.17
2023-05-17T14:41:58.658Z,23.47
2023-05-17T14:44:27.282Z,23.13
2023-05-17T14:46:56.110Z,22.18
2023-05-17T14:49:24.774Z,21.42
2023-05-17T14:51:55.106Z,21.24
2023-05-17T14:54:25.625Z,21.38
2023-05-17T14:56:54.334Z,22.00
2023-05-17T14:59:22.997Z,22.89
2023-05-17T15:01:51.484Z,23.21
2023-05-17T15:04:21.903Z,23.56
2023-05-17T15:06:51.283Z,24.11
2023-05-17T15:09:23.136Z,24.27
2023-05-17T15:11:52.629Z,24.29
2023-05-17T15:14:22.681Z,23.22
2023-05-17T15:16:54.439Z,23.63
2023-05-17T15:19:23.530Z,23.88
2023-05-17T15:21:52.115Z,24.04
2023-05-17T15:24:22.321Z,22.84
2023-05-17T15:26:51.010Z,21.95
2023-05-17T15:29:19.448Z,21.52
2023-05-17T15:31:47.801Z,21.43
2023-05-17T15:34:16.501Z,22.31
2023-05-17T15:36:45.178Z,21.82
2023-05-17T15:39:13.553Z,22.14
2023-05-17T15:41:45.951Z,23.59
2023-05-17T15:44:14.446Z,24.11
2023-05-17T15:46:43.452Z,23.97
2023-05-17T15:49:12.182Z,24.57
2023-05-17T15:51:40.801Z,23.12
2023-05-17T15:54:09.412Z,22.30
2023-05-17T15:56:38.943Z,23.63
2023-05-17T15:59:08.854Z,24.04
2023-05-17T16:01:38.491Z,24.78
2023-05-17T16:04:07.552Z,24.78
2023-05-17T16:06:36.946Z,24.64
2023-05-17T16:09:05.601Z,24.90
2023-05-17T16:11:34.056Z,24.80
2023-05-17T16:14:02.520Z,24.73
2023-05-17T16:16:32.635Z,25.18
2023-05-17T16:19:01.521Z,25.41
2023-05-17T16:21:30.143Z,24.90
2023-05-17T16:23:58.946Z,24.18
2023-05-17T16:26:28.391Z,23.77
2023-05-17T16:28:57.222Z,24.42
2023-05-17T16:31:25.887Z,24.13
2023-05-17T16:33:55.931Z,23.77
2023-05-17T16:36:25.454Z,23.89
2023-05-17T16:38:53.720Z,24.56
2023-05-17T16:41:23.150Z,23.77
2023-05-17T16:43:51.913Z,24.73
2023-05-17T16:46:25.001Z,25.31
2023-05-17T16:48:55.635Z,25.37
2023-05-17T16:51:25.879Z,24.87
2023-05-17T16:54:20.590Z,24.47
2023-05-17T16:56:49.078Z,24.11
2023-05-17T16:59:17.640Z,23.27
2023-05-17T17:01:46.319Z,22.21
2023-05-17T17:04:14.922Z,22.87
2023-05-17T17:06:45.061Z,23.23
2023-05-17T17:09:13.612Z,22.35
2023-05-17T17:11:42.145Z,22.70
2023-05-17T17:14:12.672Z,23.30
2023-05-17T17:16:42.259Z,23.30
2023-05-17T17:19:11.298Z,21.75
2023-05-17T17:21:40.448Z,21.13
2023-05-17T17:24:11.151Z,20.55
2023-05-17T17:26:40.816Z,20.41
2023-05-17T17:29:15.325Z,20.56
2023-05-17T17:31:46.373Z,21.87
2023-05-17T17:34:16.203Z,22.17
2023-05-17T17:36:45.466Z,22.06
2023-05-17T17:39:17.612Z,21.44
2023-05-17T17:41:46.229Z,20.79
2023-05-17T17:44:14.563Z,20.42
2023-05-17T17:46:43.384Z,20.09
2023-05-17T17:49:12.225Z,19.78
2023-05-17T17:51:40.940Z,19.71
2023-05-17T17:54:09.431Z,19.86
2023-05-17T17:56:39.390Z,19.86
2023-05-17T17:59:07.925Z,19.62
2023-05-17T18:01:37.863Z,19.70
2023-05-17T18:04:07.110Z,19.50
2023-05-17T18:06:36.922Z,19.39
2023-05-17T18:09:05.449Z,19.26
2023-05-17T18:11:34.609Z,19.25
2023-05-17T18:14:06.405Z,19.25
2023-05-17T18:16:34.932Z,19.13
2023-05-17T18:19:03.540Z,19.14
2023-05-17T18:21:32.101Z,18.95
2023-05-17T18:24:00.734Z,19.03
2023-05-17T18:26:29.264Z,19.10
2023-05-17T18:28:57.643Z,18.96
2023-05-17T18:31:27.746Z,18.91
2023-05-17T18:33:57.349Z,18.96
2023-05-17T18:36:26.185Z,18.82
2023-05-17T18:38:58.762Z,18.80
2023-05-17T18:41:27.577Z,18.80
2023-05-17T18:44:01.963Z,18.62
2023-05-17T18:47:38.038Z,18.54
2023-05-17T18:50:10.343Z,18.40
2023-05-17T18:52:39.975Z,18.39
2023-05-17T18:55:08.762Z,18.29
2023-05-17T18:57:38.494Z,18.38
2023-05-17T19:00:09.932Z,18.37
2023-05-17T19:02:38.848Z,18.19
2023-05-17T19:05:09.680Z,18.20
2023-05-17T19:07:38.290Z,18.15
2023-05-17T19:10:07.900Z,18.15
2023-05-17T19:12:36.668Z,18.08
2023-05-17T19:15:05.865Z,17.92
2023-05-17T19:17:34.969Z,17.91
2023-05-17T19:20:04.226Z,17.77
2023-05-17T19:22:36.005Z,17.68
2023-05-17T19:25:04.669Z,17.50
2023-05-17T19:27:33.290Z,17.41
2023-05-17T19:30:02.129Z,17.33
2023-05-17T19:32:33.393Z,17.22
2023-05-17T19:35:02.930Z,17.19
2023-05-17T19:37:31.616Z,17.21
2023-05-17T19:40:02.058Z,17.12
2023-05-17T19:42:31.697Z,17.15
2023-05-17T19:45:04.216Z,17.00
2023-05-17T19:47:32.664Z,16.77
2023-05-17T19:50:01.554Z,16.77
2023-05-17T19:52:30.177Z,16.74
2023-05-17T19:54:58.941Z,16.87
2023-05-17T19:57:28.997Z,16.72
2023-05-17T19:59:57.609Z,16.72
2023-05-17T20:02:26.499Z,16.66
2023-05-17T20:04:55.024Z,16.60
2023-05-17T20:07:26.059Z,16.60
2023-05-17T20:09:54.791Z,16.62
2023-05-17T20:12:24.996Z,16.55
2023-05-17T20:14:55.379Z,16.49
2023-05-17T20:17:24.070Z,16.39
2023-05-17T20:19:53.135Z,16.31
2023-05-17T20:22:22.367Z,16.20
2023-05-17T20:24:51.247Z,16.20
2023-05-17T20:27:26.303Z,16.15
2023-05-17T20:29:56.506Z,16.01
2023-05-17T20:32:25.355Z,15.88
2023-05-17T20:34:53.672Z,15.84
2023-05-17T20:37:22.373Z,15.74
2023-05-17T20:39:51.657Z,15.77
2023-05-17T20:42:20.852Z,15.74
2023-05-17T20:44:49.416Z,15.71
2023-05-17T20:47:19.472Z,15.64
2023-05-17T20:49:50.445Z,15.66
2023-05-17T20:52:37.484Z,15.59
2023-05-17T20:55:10.289Z,15.46
2023-05-17T20:57:42.756Z,15.40
2023-05-17T21:00:17.598Z,15.38
2023-05-17T21:02:48.236Z,15.45
2023-05-17T21:05:16.934Z,15.46
2023-05-17T21:07:47.229Z,15.40
2023-05-17T21:10:17.993Z,15.35
2023-05-17T21:12:46.847Z,15.38
2023-05-17T21:15:17.390Z,15.27
2023-05-17T21:17:47.905Z,15.22
2023-05-17T21:20:16.828Z,15.13
2023-05-17T21:22:46.427Z,15.08
2023-05-17T21:25:15.383Z,14.93
2023-05-17T21:27:44.111Z,14.86
2023-05-17T21:30:13.490Z,14.81
2023-05-17T21:32:43.156Z,14.87
2023-05-17T21:35:13.492Z,14.75
2023-05-17T21:37:42.440Z,14.73
2023-05-17T21:40:11.592Z,14.76
2023-05-17T21:42:40.288Z,14.76
2023-05-17T21:45:10.089Z,14.69
2023-05-17T21:47:38.961Z,14.65
2023-05-17T21:50:08.315Z,14.65
2023-05-17T21:52:38.442Z,14.53
2023-05-17T21:55:09.183Z,14.32
2023-05-17T21:57:38.325Z,14.34
2023-05-17T22:00:12.971Z,14.37
2023-05-17T22:02:41.828Z,14.40
2023-05-17T22:05:11.625Z,14.37
2023-05-17T22:07:41.630Z,14.23
2023-05-17T22:10:10.796Z,14.28
2023-05-17T22:12:39.485Z,14.21
2023-05-17T22:15:14.377Z,14.05
2023-05-17T22:17:51.614Z,14.15
2023-05-17T22:20:24.008Z,14.09
2023-05-17T22:22:54.556Z,14.09
2023-05-17T22:25:23.246Z,14.15
2023-05-17T22:27:51.664Z,13.97
2023-05-17T22:30:20.300Z,13.96
2023-05-17T22:32:48.727Z,13.80
2023-05-17T22:35:17.539Z,13.76
2023-05-17T22:37:46.107Z,13.75
2023-05-17T22:40:16.595Z,13.87
2023-05-17T22:42:45.242Z,13.77
2023-05-17T22:45:14.667Z,13.77
2023-05-17T22:47:43.982Z,13.73
2023-05-17T22:50:15.932Z,13.69
2023-05-17T22:52:46.548Z,13.57
2023-05-17T22:55:16.866Z,13.59
2023-05-17T22:57:45.631Z,13.54
2023-05-17T23:00:15.321Z,13.48
2023-05-17T23:02:44.321Z,13.48
2023-05-17T23:05:13.306Z,13.52
2023-05-17T23:07:43.691Z,13.44
2023-05-17T23:10:12.804Z,13.24
2023-05-17T23:12:42.817Z,13.23
2023-05-17T23:15:12.226Z,13.14
2023-05-17T23:17:41.659Z,13.02
2023-05-17T23:20:12.435Z,13.05
2023-05-17T23:22:42.154Z,12.98
2023-05-17T23:25:11.774Z,12.96
2023-05-17T23:27:40.527Z,12.96
2023-05-17T23:30:12.047Z,12.94
2023-05-17T23:32:40.417Z,13.02
2023-05-17T23:35:10.401Z,12.98
2023-05-17T23:37:38.799Z,13.01
2023-05-17T23:40:09.610Z,12.97
2023-05-17T23:42:38.404Z,13.01
2023-05-17T23:45:10.839Z,12.95
2023-05-17T23:47:41.345Z,12.95
2023-05-17T23:50:12.369Z,13.00
2023-05-17T23:52:41.072Z,12.94
2023-05-17T23:55:10.534Z,12.95
2023-05-17T23:57:40.397Z,12.78
